sensor_id;sensor_type;location;lat;lon;timestamp;temperature;humidity
81726;DHT22;71135;16.738;-14.648;2024-01-30T00:01:26;10.50;64.00
81726;DHT22;71135;16.738;-14.648;2024-01-30T00:03:55;10.50;64.00
81726;DHT22;71135;16.738;-14.648;2024-01-30T00:06:24;10.50;64.10
81726;DHT22;71135;16.738;-14.648;2024-01-30T00:08:53;10.50;64.10
81726;DHT22;71135;16.738;-14.648;2024-01-30T00:11:23;10.50;64.10
81726;DHT22;71135;16.738;-14.648;2024-01-30T00:13:56;10.50;64.10
81726;DHT22;71135;16.738;-14.648;2024-01-30T00:16:28;10.50;64.20
81726;DHT22;71135;16.738;-14.648;2024-01-30T00:18:57;10.40;64.30
81726;DHT22;71135;16.738;-14.648;2024-01-30T00:21:28;10.50;64.30
81726;DHT22;71135;16.738;-14.648;2024-01-30T00:23:57;10.50;64.20
81726;DHT22;71135;16.738;-14.648;2024-01-30T00:26:26;10.40;64.30
81726;DHT22;71135;16.738;-14.648;2024-01-30T00:28:58;10.40;64.30
81726;DHT22;71135;16.738;-14.648;2024-01-30T00:31:27;10.40;64.30
81726;DHT22;71135;16.738;-14.648;2024-01-30T00:33:56;10.40;64.30
81726;DHT22;71135;16.738;-14.648;2024-01-30T00:36:25;10.40;64.30
81726;DHT22;71135;16.738;-14.648;2024-01-30T00:38:56;10.40;64.40
81726;DHT22;71135;16.738;-14.648;2024-01-30T00:41:25;10.40;64.40
81726;DHT22;71135;16.738;-14.648;2024-01-30T00:43:57;10.40;64.40
81726;DHT22;71135;16.738;-14.648;2024-01-30T00:46:26;10.40;64.40
81726;DHT22;71135;16.738;-14.648;2024-01-30T00:48:55;10.40;64.40
81726;DHT22;71135;16.738;-14.648;2024-01-30T00:51:24;10.40;64.50
81726;DHT22;71135;16.738;-14.648;2024-01-30T00:53:56;10.40;64.50
81726;DHT22;71135;16.738;-14.648;2024-01-30T00:56:25;10.40;64.50
81726;DHT22;71135;16.738;-14.648;2024-01-30T00:58:56;10.40;64.60
81726;DHT22;71135;16.738;-14.648;2024-01-30T01:01:26;10.30;64.60
81726;DHT22;71135;16.738;-14.648;2024-01-30T01:03:55;10.30;64.60
81726;DHT22;71135;16.738;-14.648;2024-01-30T01:06:24;10.40;64.60
81726;DHT22;71135;16.738;-14.648;2024-01-30T01:08:53;10.30;64.60
81726;DHT22;71135;16.738;-14.648;2024-01-30T01:11:22;10.30;64.70
81726;DHT22;71135;16.738;-14.648;2024-01-30T01:13:51;10.30;64.70
81726;DHT22;71135;16.738;-14.648;2024-01-30T01:16:23;10.30;64.70
81726;DHT22;71135;16.738;-14.648;2024-01-30T01:19:18;10.30;64.80
81726;DHT22;71135;16.738;-14.648;2024-01-30T01:21:47;10.30;64.70
81726;DHT22;71135;16.738;-14.648;2024-01-30T01:24:16;10.30;64.80
81726;DHT22;71135;16.738;-14.648;2024-01-30T01:26:45;10.30;64.90
81726;DHT22;71135;16.738;-14.648;2024-01-30T01:29:14;10.40;64.90
81726;DHT22;71135;16.738;-14.648;2024-01-30T01:31:46;10.40;64.90
81726;DHT22;71135;16.738;-14.648;2024-01-30T01:34:15;10.40;64.90
81726;DHT22;71135;16.738;-14.648;2024-01-30T01:36:44;10.40;65.00
81726;DHT22;71135;16.738;-14.648;2024-01-30T01:39:14;10.40;65.00
81726;DHT22;71135;16.738;-14.648;2024-01-30T01:41:43;10.40;65.00
81726;DHT22;71135;16.738;-14.648;2024-01-30T01:44:12;10.40;65.10
81726;DHT22;71135;16.738;-14.648;2024-01-30T01:46:41;10.40;65.10
81726;DHT22;71135;16.738;-14.648;2024-01-30T01:49:14;10.50;65.10
81726;DHT22;71135;16.738;-14.648;2024-01-30T01:51:44;10.50;65.10
81726;DHT22;71135;16.738;-14.648;2024-01-30T01:54:14;10.50;65.10
81726;DHT22;71135;16.738;-14.648;2024-01-30T01:56:44;10.50;65.00
81726;DHT22;71135;16.738;-14.648;2024-01-30T01:59:13;10.50;65.00
81726;DHT22;71135;16.738;-14.648;2024-01-30T02:05:08;10.60;64.90
81726;DHT22;71135;16.738;-14.648;2024-01-30T02:11:06;10.60;64.80
81726;DHT22;71135;16.738;-14.648;2024-01-30T02:13:43;10.50;64.80
81726;DHT22;71135;16.738;-14.648;2024-01-30T02:16:12;10.60;64.80
81726;DHT22;71135;16.738;-14.648;2024-01-30T02:18:41;10.50;64.80
81726;DHT22;71135;16.738;-14.648;2024-01-30T02:21:16;10.50;64.80
81726;DHT22;71135;16.738;-14.648;2024-01-30T02:23:46;10.50;64.80
81726;DHT22;71135;16.738;-14.648;2024-01-30T02:26:16;10.60;64.80
81726;DHT22;71135;16.738;-14.648;2024-01-30T02:28:45;10.60;64.80
81726;DHT22;71135;16.738;-14.648;2024-01-30T02:31:14;10.60;64.90
81726;DHT22;71135;16.738;-14.648;2024-01-30T02:33:43;10.60;64.90
81726;DHT22;71135;16.738;-14.648;2024-01-30T02:36:15;10.60;65.00
81726;DHT22;71135;16.738;-14.648;2024-01-30T02:38:44;10.60;65.10
81726;DHT22;71135;16.738;-14.648;2024-01-30T02:41:13;10.60;65.10
81726;DHT22;71135;16.738;-14.648;2024-01-30T02:43:42;10.60;65.10
81726;DHT22;71135;16.738;-14.648;2024-01-30T02:46:12;10.60;65.20
81726;DHT22;71135;16.738;-14.648;2024-01-30T02:48:41;10.60;65.20
81726;DHT22;71135;16.738;-14.648;2024-01-30T02:51:10;10.60;65.20
81726;DHT22;71135;16.738;-14.648;2024-01-30T02:53:42;10.60;65.20
81726;DHT22;71135;16.738;-14.648;2024-01-30T02:56:11;10.60;65.20
81726;DHT22;71135;16.738;-14.648;2024-01-30T02:58:40;10.60;65.20
81726;DHT22;71135;16.738;-14.648;2024-01-30T03:01:07;10.70;65.20
81726;DHT22;71135;16.738;-14.648;2024-01-30T03:03:36;10.70;65.10
81726;DHT22;71135;16.738;-14.648;2024-01-30T03:06:06;10.70;65.10
81726;DHT22;71135;16.738;-14.648;2024-01-30T03:08:35;10.70;65.10
81726;DHT22;71135;16.738;-14.648;2024-01-30T03:11:08;10.70;65.10
81726;DHT22;71135;16.738;-14.648;2024-01-30T03:13:37;10.70;65.10
81726;DHT22;71135;16.738;-14.648;2024-01-30T03:16:08;10.70;65.00
81726;DHT22;71135;16.738;-14.648;2024-01-30T03:18:37;10.70;65.00
81726;DHT22;71135;16.738;-14.648;2024-01-30T03:21:06;10.70;65.00
81726;DHT22;71135;16.738;-14.648;2024-01-30T03:23:35;10.70;64.90
81726;DHT22;71135;16.738;-14.648;2024-01-30T03:26:07;10.70;64.90
81726;DHT22;71135;16.738;-14.648;2024-01-30T03:28:37;10.70;64.90
81726;DHT22;71135;16.738;-14.648;2024-01-30T03:31:07;10.70;64.90
81726;DHT22;71135;16.738;-14.648;2024-01-30T03:33:36;10.70;64.90
81726;DHT22;71135;16.738;-14.648;2024-01-30T03:39:12;10.70;64.90
81726;DHT22;71135;16.738;-14.648;2024-01-30T03:41:51;10.70;64.90
81726;DHT22;71135;16.738;-14.648;2024-01-30T03:44:23;10.70;64.90
81726;DHT22;71135;16.738;-14.648;2024-01-30T03:46:52;10.70;64.80
81726;DHT22;71135;16.738;-14.648;2024-01-30T03:49:21;10.70;64.80
81726;DHT22;71135;16.738;-14.648;2024-01-30T03:51:50;10.70;64.90
81726;DHT22;71135;16.738;-14.648;2024-01-30T03:54:19;10.70;64.90
81726;DHT22;71135;16.738;-14.648;2024-01-30T03:56:48;10.70;64.90
81726;DHT22;71135;16.738;-14.648;2024-01-30T03:59:20;10.70;64.90
81726;DHT22;71135;16.738;-14.648;2024-01-30T04:01:50;10.70;64.90
81726;DHT22;71135;16.738;-14.648;2024-01-30T04:04:19;10.70;65.00
81726;DHT22;71135;16.738;-14.648;2024-01-30T04:06:49;10.70;65.00
81726;DHT22;71135;16.738;-14.648;2024-01-30T04:09:18;10.70;64.90
81726;DHT22;71135;16.738;-14.648;2024-01-30T04:11:47;10.80;64.90
81726;DHT22;71135;16.738;-14.648;2024-01-30T04:14:16;10.80;64.90
81726;DHT22;71135;16.738;-14.648;2024-01-30T04:16:48;10.80;64.80
81726;DHT22;71135;16.738;-14.648;2024-01-30T04:19:17;10.80;64.80
81726;DHT22;71135;16.738;-14.648;2024-01-30T04:21:46;10.80;64.70
81726;DHT22;71135;16.738;-14.648;2024-01-30T04:24:15;10.80;64.70
81726;DHT22;71135;16.738;-14.648;2024-01-30T04:26:45;10.90;64.70
81726;DHT22;71135;16.738;-14.648;2024-01-30T04:29:14;10.90;64.70
81726;DHT22;71135;16.738;-14.648;2024-01-30T04:31:43;10.90;64.70
81726;DHT22;71135;16.738;-14.648;2024-01-30T04:34:15;10.90;64.70
81726;DHT22;71135;16.738;-14.648;2024-01-30T04:36:44;10.90;64.70
81726;DHT22;71135;16.738;-14.648;2024-01-30T04:39:13;10.80;64.70
81726;DHT22;71135;16.738;-14.648;2024-01-30T04:41:43;10.80;64.80
81726;DHT22;71135;16.738;-14.648;2024-01-30T04:44:12;10.90;64.70
81726;DHT22;71135;16.738;-14.648;2024-01-30T04:46:41;10.90;64.70
81726;DHT22;71135;16.738;-14.648;2024-01-30T04:49:10;10.80;64.80
81726;DHT22;71135;16.738;-14.648;2024-01-30T04:51:42;10.80;64.70
81726;DHT22;71135;16.738;-14.648;2024-01-30T04:54:11;10.90;64.80
81726;DHT22;71135;16.738;-14.648;2024-01-30T04:56:40;10.90;64.80
81726;DHT22;71135;16.738;-14.648;2024-01-30T04:59:09;10.90;64.80
81726;DHT22;71135;16.738;-14.648;2024-01-30T05:01:38;10.90;64.80
81726;DHT22;71135;16.738;-14.648;2024-01-30T05:04:08;10.90;64.70
81726;DHT22;71135;16.738;-14.648;2024-01-30T05:06:38;10.90;64.70
81726;DHT22;71135;16.738;-14.648;2024-01-30T05:09:09;10.90;64.70
81726;DHT22;71135;16.738;-14.648;2024-01-30T05:11:39;10.90;64.70
81726;DHT22;71135;16.738;-14.648;2024-01-30T05:14:08;11.00;64.60
81726;DHT22;71135;16.738;-14.648;2024-01-30T05:16:38;11.00;64.60
81726;DHT22;71135;16.738;-14.648;2024-01-30T05:19:07;11.00;64.70
81726;DHT22;71135;16.738;-14.648;2024-01-30T05:21:36;11.00;64.70
81726;DHT22;71135;16.738;-14.648;2024-01-30T05:24:06;10.90;64.70
81726;DHT22;71135;16.738;-14.648;2024-01-30T05:26:38;10.90;64.70
81726;DHT22;71135;16.738;-14.648;2024-01-30T05:29:08;11.00;64.70
81726;DHT22;71135;16.738;-14.648;2024-01-30T05:31:37;11.00;64.70
81726;DHT22;71135;16.738;-14.648;2024-01-30T05:34:06;11.00;64.70
81726;DHT22;71135;16.738;-14.648;2024-01-30T05:36:35;11.00;64.70
81726;DHT22;71135;16.738;-14.648;2024-01-30T05:39:04;11.00;64.70
81726;DHT22;71135;16.738;-14.648;2024-01-30T05:41:33;11.00;64.70
81726;DHT22;71135;16.738;-14.648;2024-01-30T05:44:05;11.00;64.70
81726;DHT22;71135;16.738;-14.648;2024-01-30T05:46:35;11.00;64.70
81726;DHT22;71135;16.738;-14.648;2024-01-30T05:49:04;11.10;64.70
81726;DHT22;71135;16.738;-14.648;2024-01-30T05:51:33;11.10;64.70
81726;DHT22;71135;16.738;-14.648;2024-01-30T05:54:02;11.10;64.70
81726;DHT22;71135;16.738;-14.648;2024-01-30T05:56:32;11.10;64.70
81726;DHT22;71135;16.738;-14.648;2024-01-30T05:59:01;11.10;64.70
81726;DHT22;71135;16.738;-14.648;2024-01-30T06:01:33;11.10;64.70
81726;DHT22;71135;16.738;-14.648;2024-01-30T06:04:02;11.10;64.70
81726;DHT22;71135;16.738;-14.648;2024-01-30T06:06:31;11.10;64.70
81726;DHT22;71135;16.738;-14.648;2024-01-30T06:09:00;11.10;64.70
81726;DHT22;71135;16.738;-14.648;2024-01-30T06:11:29;11.20;64.70
81726;DHT22;71135;16.738;-14.648;2024-01-30T06:13:58;11.30;64.70
81726;DHT22;71135;16.738;-14.648;2024-01-30T06:16:27;11.30;64.60
81726;DHT22;71135;16.738;-14.648;2024-01-30T06:18:59;11.30;64.70
81726;DHT22;71135;16.738;-14.648;2024-01-30T06:21:29;11.30;64.70
81726;DHT22;71135;16.738;-14.648;2024-01-30T06:24:00;11.30;64.60
81726;DHT22;71135;16.738;-14.648;2024-01-30T06:26:29;11.30;64.60
81726;DHT22;71135;16.738;-14.648;2024-01-30T06:28:58;11.30;64.60
81726;DHT22;71135;16.738;-14.648;2024-01-30T06:31:27;11.30;64.60
81726;DHT22;71135;16.738;-14.648;2024-01-30T06:33:59;11.30;64.70
81726;DHT22;71135;16.738;-14.648;2024-01-30T06:36:28;11.30;64.70
81726;DHT22;71135;16.738;-14.648;2024-01-30T06:38:58;11.30;64.70
81726;DHT22;71135;16.738;-14.648;2024-01-30T06:41:27;11.30;64.70
81726;DHT22;71135;16.738;-14.648;2024-01-30T06:43:56;11.30;64.70
81726;DHT22;71135;16.738;-14.648;2024-01-30T06:46:25;11.30;64.70
81726;DHT22;71135;16.738;-14.648;2024-01-30T06:48:54;11.30;64.70
81726;DHT22;71135;16.738;-14.648;2024-01-30T06:51:26;11.30;64.70
81726;DHT22;71135;16.738;-14.648;2024-01-30T06:53:55;11.40;64.70
81726;DHT22;71135;16.738;-14.648;2024-01-30T06:56:24;11.40;64.80
81726;DHT22;71135;16.738;-14.648;2024-01-30T06:58:53;11.40;64.80
81726;DHT22;71135;16.738;-14.648;2024-01-30T07:01:27;11.40;64.80
81726;DHT22;71135;16.738;-14.648;2024-01-30T07:03:57;11.40;64.80
81726;DHT22;71135;16.738;-14.648;2024-01-30T07:06:29;11.40;64.80
81726;DHT22;71135;16.738;-14.648;2024-01-30T07:08:58;11.40;64.80
81726;DHT22;71135;16.738;-14.648;2024-01-30T07:11:27;11.40;64.80
81726;DHT22;71135;16.738;-14.648;2024-01-30T07:13:56;11.40;65.00
81726;DHT22;71135;16.738;-14.648;2024-01-30T07:16:25;11.40;65.00
81726;DHT22;71135;16.738;-14.648;2024-01-30T07:18:54;11.50;65.00
81726;DHT22;71135;16.738;-14.648;2024-01-30T07:21:24;11.50;65.00
81726;DHT22;71135;16.738;-14.648;2024-01-30T07:23:57;11.50;65.00
81726;DHT22;71135;16.738;-14.648;2024-01-30T07:26:26;11.50;65.00
81726;DHT22;71135;16.738;-14.648;2024-01-30T07:28:55;11.50;65.00
81726;DHT22;71135;16.738;-14.648;2024-01-30T07:31:24;11.50;65.00
81726;DHT22;71135;16.738;-14.648;2024-01-30T07:33:53;11.50;65.10
81726;DHT22;71135;16.738;-14.648;2024-01-30T07:36:23;11.50;65.10
81726;DHT22;71135;16.738;-14.648;2024-01-30T07:38:52;11.60;65.10
81726;DHT22;71135;16.738;-14.648;2024-01-30T07:41:25;11.60;65.10
81726;DHT22;71135;16.738;-14.648;2024-01-30T07:43:54;11.60;65.10
81726;DHT22;71135;16.738;-14.648;2024-01-30T07:46:23;11.60;65.10
81726;DHT22;71135;16.738;-14.648;2024-01-30T07:48:52;11.60;65.10
81726;DHT22;71135;16.738;-14.648;2024-01-30T07:51:21;11.70;65.20
81726;DHT22;71135;16.738;-14.648;2024-01-30T07:53:55;11.70;65.10
81726;DHT22;71135;16.738;-14.648;2024-01-30T07:56:29;11.70;65.10
81726;DHT22;71135;16.738;-14.648;2024-01-30T07:58:58;11.70;65.00
81726;DHT22;71135;16.738;-14.648;2024-01-30T08:01:27;11.70;65.10
81726;DHT22;71135;16.738;-14.648;2024-01-30T08:03:57;11.70;65.00
81726;DHT22;71135;16.738;-14.648;2024-01-30T08:06:26;11.70;65.00
81726;DHT22;71135;16.738;-14.648;2024-01-30T08:08:55;11.80;65.00
81726;DHT22;71135;16.738;-14.648;2024-01-30T08:11:28;11.80;65.00
81726;DHT22;71135;16.738;-14.648;2024-01-30T08:13:57;11.80;65.10
81726;DHT22;71135;16.738;-14.648;2024-01-30T08:16:26;11.90;65.20
81726;DHT22;71135;16.738;-14.648;2024-01-30T08:18:55;11.90;65.20
81726;DHT22;71135;16.738;-14.648;2024-01-30T08:21:24;11.90;65.20
81726;DHT22;71135;16.738;-14.648;2024-01-30T08:23:54;11.90;65.20
81726;DHT22;71135;16.738;-14.648;2024-01-30T08:26:23;11.90;65.20
81726;DHT22;71135;16.738;-14.648;2024-01-30T08:28:55;12.00;65.30
81726;DHT22;71135;16.738;-14.648;2024-01-30T08:31:24;12.00;65.30
81726;DHT22;71135;16.738;-14.648;2024-01-30T08:33:53;12.00;65.30
81726;DHT22;71135;16.738;-14.648;2024-01-30T08:36:22;12.10;65.30
81726;DHT22;71135;16.738;-14.648;2024-01-30T08:38:52;12.10;65.30
81726;DHT22;71135;16.738;-14.648;2024-01-30T08:41:21;12.10;65.40
81726;DHT22;71135;16.738;-14.648;2024-01-30T08:43:53;12.10;65.40
81726;DHT22;71135;16.738;-14.648;2024-01-30T08:46:23;12.20;65.40
81726;DHT22;71135;16.738;-14.648;2024-01-30T08:48:52;12.20;65.40
81726;DHT22;71135;16.738;-14.648;2024-01-30T08:51:21;12.30;65.40
81726;DHT22;71135;16.738;-14.648;2024-01-30T08:53:50;12.30;65.40
81726;DHT22;71135;16.738;-14.648;2024-01-30T08:56:20;12.30;65.50
81726;DHT22;71135;16.738;-14.648;2024-01-30T08:58:49;12.40;65.40
81726;DHT22;71135;16.738;-14.648;2024-01-30T09:01:21;12.40;65.50
81726;DHT22;71135;16.738;-14.648;2024-01-30T09:03:50;12.50;65.50
81726;DHT22;71135;16.738;-14.648;2024-01-30T09:06:19;12.50;65.50
81726;DHT22;71135;16.738;-14.648;2024-01-30T09:08:48;12.50;65.50
81726;DHT22;71135;16.738;-14.648;2024-01-30T09:11:17;12.50;65.50
81726;DHT22;71135;16.738;-14.648;2024-01-30T09:13:47;12.50;65.50
81726;DHT22;71135;16.738;-14.648;2024-01-30T09:16:16;12.60;65.50
81726;DHT22;71135;16.738;-14.648;2024-01-30T09:18:48;12.70;65.60
81726;DHT22;71135;16.738;-14.648;2024-01-30T09:21:17;12.70;65.70
81726;DHT22;71135;16.738;-14.648;2024-01-30T09:23:46;12.70;65.70
81726;DHT22;71135;16.738;-14.648;2024-01-30T09:26:15;12.80;65.80
81726;DHT22;71135;16.738;-14.648;2024-01-30T09:28:44;12.80;65.80
81726;DHT22;71135;16.738;-14.648;2024-01-30T09:31:14;12.90;65.80
81726;DHT22;71135;16.738;-14.648;2024-01-30T09:33:43;12.90;65.90
81726;DHT22;71135;16.738;-14.648;2024-01-30T09:36:16;13.00;65.90
81726;DHT22;71135;16.738;-14.648;2024-01-30T09:38:46;13.00;65.90
81726;DHT22;71135;16.738;-14.648;2024-01-30T09:41:15;13.10;65.90
81726;DHT22;71135;16.738;-14.648;2024-01-30T09:43:48;13.10;65.90
81726;DHT22;71135;16.738;-14.648;2024-01-30T09:46:18;13.10;65.90
81726;DHT22;71135;16.738;-14.648;2024-01-30T09:48:50;13.10;66.00
81726;DHT22;71135;16.738;-14.648;2024-01-30T09:51:20;13.30;65.90
81726;DHT22;71135;16.738;-14.648;2024-01-30T09:53:50;13.30;65.80
81726;DHT22;71135;16.738;-14.648;2024-01-30T09:56:19;13.30;65.80
81726;DHT22;71135;16.738;-14.648;2024-01-30T09:58:49;13.30;65.70
81726;DHT22;71135;16.738;-14.648;2024-01-30T10:01:18;13.50;65.60
81726;DHT22;71135;16.738;-14.648;2024-01-30T10:03:50;13.50;65.60
81726;DHT22;71135;16.738;-14.648;2024-01-30T10:06:24;13.50;65.50
81726;DHT22;71135;16.738;-14.648;2024-01-30T10:08:54;13.50;65.40
81726;DHT22;71135;16.738;-14.648;2024-01-30T10:11:23;13.60;65.30
81726;DHT22;71135;16.738;-14.648;2024-01-30T10:13:52;13.60;65.20
81726;DHT22;71135;16.738;-14.648;2024-01-30T10:16:21;13.60;65.10
81726;DHT22;71135;16.738;-14.648;2024-01-30T10:18:51;13.60;65.00
81726;DHT22;71135;16.738;-14.648;2024-01-30T10:21:24;13.60;64.90
81726;DHT22;71135;16.738;-14.648;2024-01-30T10:23:53;13.70;64.90
81726;DHT22;71135;16.738;-14.648;2024-01-30T10:26:23;13.70;64.80
81726;DHT22;71135;16.738;-14.648;2024-01-30T10:28:52;13.70;64.80
81726;DHT22;71135;16.738;-14.648;2024-01-30T10:31:21;13.70;64.60
81726;DHT22;71135;16.738;-14.648;2024-01-30T10:33:51;13.70;64.60
81726;DHT22;71135;16.738;-14.648;2024-01-30T10:36:25;13.70;64.50
81726;DHT22;71135;16.738;-14.648;2024-01-30T10:38:59;13.70;64.50
81726;DHT22;71135;16.738;-14.648;2024-01-30T10:41:31;13.80;64.50
81726;DHT22;71135;16.738;-14.648;2024-01-30T10:44:08;13.70;64.40
81726;DHT22;71135;16.738;-14.648;2024-01-30T10:46:38;13.70;64.30
81726;DHT22;71135;16.738;-14.648;2024-01-30T10:49:08;13.70;64.20
81726;DHT22;71135;16.738;-14.648;2024-01-30T10:51:41;13.70;64.10
81726;DHT22;71135;16.738;-14.648;2024-01-30T10:54:12;13.70;64.00
81726;DHT22;71135;16.738;-14.648;2024-01-30T10:56:42;13.70;64.00
81726;DHT22;71135;16.738;-14.648;2024-01-30T10:59:12;13.70;63.90
81726;DHT22;71135;16.738;-14.648;2024-01-30T11:01:42;13.70;63.60
81726;DHT22;71135;16.738;-14.648;2024-01-30T11:04:11;13.70;63.50
81726;DHT22;71135;16.738;-14.648;2024-01-30T11:06:43;13.70;63.40
81726;DHT22;71135;16.738;-14.648;2024-01-30T11:09:13;13.70;63.20
81726;DHT22;71135;16.738;-14.648;2024-01-30T11:11:50;13.60;62.90
81726;DHT22;71135;16.738;-14.648;2024-01-30T11:14:25;13.60;62.80
81726;DHT22;71135;16.738;-14.648;2024-01-30T11:16:57;13.60;62.60
81726;DHT22;71135;16.738;-14.648;2024-01-30T11:19:27;13.50;62.50
81726;DHT22;71135;16.738;-14.648;2024-01-30T11:21:59;13.50;62.30
81726;DHT22;71135;16.738;-14.648;2024-01-30T11:24:29;13.50;62.20
81726;DHT22;71135;16.738;-14.648;2024-01-30T11:26:58;13.50;62.00
81726;DHT22;71135;16.738;-14.648;2024-01-30T11:29:28;13.40;62.10
81726;DHT22;71135;16.738;-14.648;2024-01-30T11:31:58;13.30;61.90
81726;DHT22;71135;16.738;-14.648;2024-01-30T11:34:28;13.30;61.90
81726;DHT22;71135;16.738;-14.648;2024-01-30T11:37:03;13.30;61.80
81726;DHT22;71135;16.738;-14.648;2024-01-30T11:39:36;13.20;61.70
81726;DHT22;71135;16.738;-14.648;2024-01-30T11:42:08;13.10;61.70
81726;DHT22;71135;16.738;-14.648;2024-01-30T11:44:37;13.10;61.80
81726;DHT22;71135;16.738;-14.648;2024-01-30T11:47:07;13.10;61.90
81726;DHT22;71135;16.738;-14.648;2024-01-30T11:49:36;13.00;61.90
81726;DHT22;71135;16.738;-14.648;2024-01-30T11:52:08;13.00;62.00
81726;DHT22;71135;16.738;-14.648;2024-01-30T11:54:39;13.00;62.00
81726;DHT22;71135;16.738;-14.648;2024-01-30T11:57:09;13.00;62.00
81726;DHT22;71135;16.738;-14.648;2024-01-30T11:59:38;13.00;62.00
81726;DHT22;71135;16.738;-14.648;2024-01-30T12:02:15;12.90;62.00
81726;DHT22;71135;16.738;-14.648;2024-01-30T12:04:45;12.90;61.90
81726;DHT22;71135;16.738;-14.648;2024-01-30T12:07:17;12.90;62.00
81726;DHT22;71135;16.738;-14.648;2024-01-30T12:09:52;12.90;61.90
81726;DHT22;71135;16.738;-14.648;2024-01-30T12:12:22;12.80;61.90
81726;DHT22;71135;16.738;-14.648;2024-01-30T12:14:52;12.80;62.10
81726;DHT22;71135;16.738;-14.648;2024-01-30T12:17:30;12.70;62.20
81726;DHT22;71135;16.738;-14.648;2024-01-30T12:20:04;12.70;62.20
81726;DHT22;71135;16.738;-14.648;2024-01-30T12:22:39;12.70;62.30
81726;DHT22;71135;16.738;-14.648;2024-01-30T12:25:20;12.70;62.30
81726;DHT22;71135;16.738;-14.648;2024-01-30T12:27:49;12.60;62.30
81726;DHT22;71135;16.738;-14.648;2024-01-30T12:30:36;12.60;62.30
81726;DHT22;71135;16.738;-14.648;2024-01-30T12:33:05;12.50;62.30
81726;DHT22;71135;16.738;-14.648;2024-01-30T12:35:36;12.50;62.30
81726;DHT22;71135;16.738;-14.648;2024-01-30T12:38:07;12.50;62.30
81726;DHT22;71135;16.738;-14.648;2024-01-30T12:40:47;12.50;62.40
81726;DHT22;71135;16.738;-14.648;2024-01-30T12:43:16;12.50;62.50
81726;DHT22;71135;16.738;-14.648;2024-01-30T12:45:46;12.50;62.50
81726;DHT22;71135;16.738;-14.648;2024-01-30T12:51:15;12.60;62.60
81726;DHT22;71135;16.738;-14.648;2024-01-30T12:53:46;12.60;62.60
81726;DHT22;71135;16.738;-14.648;2024-01-30T12:56:16;12.60;62.60
81726;DHT22;71135;16.738;-14.648;2024-01-30T12:58:45;12.60;62.60
81726;DHT22;71135;16.738;-14.648;2024-01-30T13:01:14;12.60;62.60
81726;DHT22;71135;16.738;-14.648;2024-01-30T13:03:43;12.60;62.70
81726;DHT22;71135;16.738;-14.648;2024-01-30T13:06:12;12.60;62.80
81726;DHT22;71135;16.738;-14.648;2024-01-30T13:08:41;12.60;62.90
81726;DHT22;71135;16.738;-14.648;2024-01-30T13:11:13;12.60;63.00
81726;DHT22;71135;16.738;-14.648;2024-01-30T13:13:42;12.50;63.10
81726;DHT22;71135;16.738;-14.648;2024-01-30T13:16:11;12.50;63.20
81726;DHT22;71135;16.738;-14.648;2024-01-30T13:18:41;12.50;63.40
81726;DHT22;71135;16.738;-14.648;2024-01-30T13:21:10;12.50;63.50
81726;DHT22;71135;16.738;-14.648;2024-01-30T13:23:39;12.50;63.70
81726;DHT22;71135;16.738;-14.648;2024-01-30T13:26:09;12.50;63.80
81726;DHT22;71135;16.738;-14.648;2024-01-30T13:28:41;12.50;63.90
81726;DHT22;71135;16.738;-14.648;2024-01-30T13:31:10;12.40;63.90
81726;DHT22;71135;16.738;-14.648;2024-01-30T13:33:39;12.40;64.00
81726;DHT22;71135;16.738;-14.648;2024-01-30T13:36:09;12.30;64.10
81726;DHT22;71135;16.738;-14.648;2024-01-30T13:38:39;12.30;64.20
81726;DHT22;71135;16.738;-14.648;2024-01-30T13:41:08;12.20;64.30
81726;DHT22;71135;16.738;-14.648;2024-01-30T13:43:37;12.20;64.30
81726;DHT22;71135;16.738;-14.648;2024-01-30T13:46:09;12.20;64.40
81726;DHT22;71135;16.738;-14.648;2024-01-30T13:48:38;12.20;64.50
81726;DHT22;71135;16.738;-14.648;2024-01-30T13:51:07;12.10;64.60
81726;DHT22;71135;16.738;-14.648;2024-01-30T13:53:37;12.10;64.70
81726;DHT22;71135;16.738;-14.648;2024-01-30T13:56:06;12.00;64.80
81726;DHT22;71135;16.738;-14.648;2024-01-30T13:58:35;12.00;65.00
81726;DHT22;71135;16.738;-14.648;2024-01-30T14:01:05;12.00;65.00
81726;DHT22;71135;16.738;-14.648;2024-01-30T14:03:38;11.90;65.20
81726;DHT22;71135;16.738;-14.648;2024-01-30T14:06:07;11.90;65.40
81726;DHT22;71135;16.738;-14.648;2024-01-30T14:08:37;11.90;65.50
81726;DHT22;71135;16.738;-14.648;2024-01-30T14:11:06;11.80;65.60
81726;DHT22;71135;16.738;-14.648;2024-01-30T14:13:35;11.80;65.70
81726;DHT22;71135;16.738;-14.648;2024-01-30T14:16:05;11.80;65.80
81726;DHT22;71135;16.738;-14.648;2024-01-30T14:18:34;11.80;65.90
81726;DHT22;71135;16.738;-14.648;2024-01-30T14:21:06;11.80;65.90
81726;DHT22;71135;16.738;-14.648;2024-01-30T14:23:35;11.80;65.90
81726;DHT22;71135;16.738;-14.648;2024-01-30T14:26:05;11.70;66.00
81726;DHT22;71135;16.738;-14.648;2024-01-30T14:28:34;11.70;66.10
81726;DHT22;71135;16.738;-14.648;2024-01-30T14:31:04;11.70;66.20
81726;DHT22;71135;16.738;-14.648;2024-01-30T14:33:33;11.70;66.30
81726;DHT22;71135;16.738;-14.648;2024-01-30T14:36:02;11.70;66.30
81726;DHT22;71135;16.738;-14.648;2024-01-30T14:41:39;11.70;66.50
81726;DHT22;71135;16.738;-14.648;2024-01-30T14:44:08;11.70;66.50
81726;DHT22;71135;16.738;-14.648;2024-01-30T14:46:37;11.70;66.70
81726;DHT22;71135;16.738;-14.648;2024-01-30T14:49:07;11.70;66.60
81726;DHT22;71135;16.738;-14.648;2024-01-30T14:51:36;11.70;66.70
81726;DHT22;71135;16.738;-14.648;2024-01-30T14:54:05;11.70;66.80
81726;DHT22;71135;16.738;-14.648;2024-01-30T14:56:34;11.70;66.80
81726;DHT22;71135;16.738;-14.648;2024-01-30T14:59:06;11.70;66.80
81726;DHT22;71135;16.738;-14.648;2024-01-30T15:01:35;11.70;66.90
81726;DHT22;71135;16.738;-14.648;2024-01-30T15:04:04;11.70;66.90
81726;DHT22;71135;16.738;-14.648;2024-01-30T15:06:34;11.60;66.90
81726;DHT22;71135;16.738;-14.648;2024-01-30T15:09:03;11.60;67.00
81726;DHT22;71135;16.738;-14.648;2024-01-30T15:11:32;11.60;67.00
81726;DHT22;71135;16.738;-14.648;2024-01-30T15:14:01;11.60;67.10
81726;DHT22;71135;16.738;-14.648;2024-01-30T15:16:33;11.60;67.10
81726;DHT22;71135;16.738;-14.648;2024-01-30T15:19:02;11.60;67.10
81726;DHT22;71135;16.738;-14.648;2024-01-30T15:21:32;11.60;67.20
81726;DHT22;71135;16.738;-14.648;2024-01-30T15:24:03;11.50;67.20
81726;DHT22;71135;16.738;-14.648;2024-01-30T15:26:33;11.50;67.20
81726;DHT22;71135;16.738;-14.648;2024-01-30T15:29:02;11.50;67.20
81726;DHT22;71135;16.738;-14.648;2024-01-30T15:31:33;11.50;67.30
81726;DHT22;71135;16.738;-14.648;2024-01-30T15:34:03;11.50;67.30
81726;DHT22;71135;16.738;-14.648;2024-01-30T15:36:32;11.50;67.30